createdAt,value
2023-05-19T00:00:34.692Z,958.7623
2023-05-19T00:01:35.777Z,958.7570
2023-05-19T00:02:37.289Z,958.7523
2023-05-19T00:03:38.728Z,958.7585
2023-05-19T00:04:40.141Z,958.7570
2023-05-19T00:05:41.514Z,958.7608
2023-05-19T00:06:42.959Z,958.7408
2023-05-19T00:07:44.355Z,958.7069
2023-05-19T00:08:45.886Z,958.7077
2023-05-19T00:09:47.269Z,958.7146
2023-05-19T00:10:48.643Z,958.7062
2023-05-19T00:11:50.032Z,958.7131
2023-05-19T00:12:53.725Z,958.7369
2023-05-19T00:13:52.906Z,958.7430
2023-05-19T00:14:54.417Z,958.7454
2023-05-19T00:15:55.773Z,958.7408
2023-05-19T00:16:57.286Z,958.7123
2023-05-19T00:17:58.724Z,958.7108
2023-05-19T00:19:00.164Z,958.7115
2023-05-19T00:20:01.416Z,958.6992
2023-05-19T00:21:02.890Z,958.6908
2023-05-19T00:22:04.281Z,958.6800
2023-05-19T00:23:05.738Z,958.6723
2023-05-19T00:24:07.219Z,958.6638
2023-05-19T00:25:08.644Z,958.6300
2023-05-19T00:26:09.984Z,958.6100
2023-05-19T00:27:11.396Z,958.6130
2023-05-19T00:28:12.741Z,958.6008
2023-05-19T00:29:14.307Z,958.5977
2023-05-19T00:30:15.680Z,958.5839
2023-05-19T00:31:17.215Z,958.5847
2023-05-19T00:32:18.650Z,958.5839
2023-05-19T00:33:19.961Z,958.5715
2023-05-19T00:34:21.426Z,958.5408
2023-05-19T00:35:22.856Z,958.5269
2023-05-19T00:36:24.146Z,958.5431
2023-05-19T00:37:25.673Z,958.5339
2023-05-19T00:38:27.170Z,958.5385
2023-05-19T00:39:28.512Z,958.5392
2023-05-19T00:40:30.106Z,958.5446
2023-05-19T00:41:31.420Z,958.5423
2023-05-19T00:42:32.792Z,958.5415
2023-05-19T00:43:34.270Z,958.5292
2023-05-19T00:44:35.604Z,958.5308
2023-05-19T00:45:37.151Z,958.5177
2023-05-19T00:46:38.574Z,958.5062
2023-05-19T00:47:39.968Z,958.5038
2023-05-19T00:48:41.342Z,958.5115
2023-05-19T00:49:42.796Z,958.5108
2023-05-19T00:50:44.220Z,958.4893
2023-05-19T00:51:45.586Z,958.4623
2023-05-19T00:52:46.988Z,958.4500
2023-05-19T00:53:48.587Z,958.4446
2023-05-19T00:54:49.886Z,958.4261
2023-05-19T00:55:51.389Z,958.4153
2023-05-19T00:56:52.796Z,958.4023
2023-05-19T00:57:54.201Z,958.3931
2023-05-19T00:58:55.654Z,958.3969
2023-05-19T00:59:57.064Z,958.3970
2023-05-19T01:00:58.601Z,958.3815
2023-05-19T01:01:59.924Z,958.3854
2023-05-19T01:03:01.371Z,958.3815
2023-05-19T01:04:02.868Z,958.3730
2023-05-19T01:05:04.174Z,958.3630
2023-05-19T01:06:05.542Z,958.3538
2023-05-19T01:07:07.013Z,958.3423
2023-05-19T01:08:08.468Z,958.3215
2023-05-19T01:09:09.847Z,958.3138
2023-05-19T01:10:11.250Z,958.2961
2023-05-19T01:11:12.723Z,958.2969
2023-05-19T01:12:14.122Z,958.2985
2023-05-19T01:13:15.621Z,958.2908
2023-05-19T01:14:16.880Z,958.2785
2023-05-19T01:15:18.419Z,958.2777
2023-05-19T01:16:19.888Z,958.2700
2023-05-19T01:17:21.250Z,958.2670
2023-05-19T01:18:22.643Z,958.2662
2023-05-19T01:19:24.137Z,958.2538
2023-05-19T01:20:25.485Z,958.2485
2023-05-19T01:21:27.028Z,958.2592
2023-05-19T01:22:28.357Z,958.2631
2023-05-19T01:23:29.793Z,958.2669
2023-05-19T01:24:31.195Z,958.2831
2023-05-19T01:25:32.656Z,958.2969
2023-05-19T01:26:34.059Z,958.3062
2023-05-19T01:27:50.302Z,958.3092
2023-05-19T01:28:36.895Z,958.3220
2023-05-19T01:29:38.291Z,958.3123
2023-05-19T01:30:39.810Z,958.3069
2023-05-19T01:31:41.310Z,958.3008
2023-05-19T01:32:42.651Z,958.2938
2023-05-19T01:33:44.020Z,958.2839
2023-05-19T01:34:45.480Z,958.2846
2023-05-19T01:35:46.814Z,958.2900
2023-05-19T01:36:48.298Z,958.2915
2023-05-19T01:37:49.690Z,958.3038
2023-05-19T01:38:51.195Z,958.3030
2023-05-19T01:39:52.605Z,958.3185
2023-05-19T01:40:54.043Z,958.3285
2023-05-19T01:41:55.514Z,958.3331
2023-05-19T01:42:57.866Z,958.3370
2023-05-19T01:43:58.268Z,958.3461
2023-05-19T01:44:59.643Z,958.3385
2023-05-19T01:46:01.149Z,958.3347
2023-05-19T01:47:02.593Z,958.3461
2023-05-19T01:48:04.007Z,958.3446
2023-05-19T01:49:05.439Z,958.3477
2023-05-19T01:50:06.809Z,958.3408
2023-05-19T01:51:08.288Z,958.3454
2023-05-19T01:52:09.733Z,958.3746
2023-05-19T01:53:11.150Z,958.3885
2023-05-19T01:54:12.559Z,958.3962
2023-05-19T01:55:14.061Z,958.4039
2023-05-19T01:56:15.378Z,958.3969
2023-05-19T01:57:16.849Z,958.3892
2023-05-19T01:58:18.203Z,958.3846
2023-05-19T01:59:19.643Z,958.3854
2023-05-19T02:00:21.406Z,958.3846
2023-05-19T02:01:22.470Z,958.3823
2023-05-19T02:02:24.014Z,958.3900
2023-05-19T02:03:25.397Z,958.4023
2023-05-19T02:04:26.917Z,958.4069
2023-05-19T02:05:28.209Z,958.4131
2023-05-19T02:06:29.623Z,958.4069
2023-05-19T02:07:30.983Z,958.4039
2023-05-19T02:08:32.474Z,958.4069
2023-05-19T02:09:33.918Z,958.4100
2023-05-19T02:10:35.338Z,958.4100
2023-05-19T02:11:36.721Z,958.4108
2023-05-19T02:12:38.266Z,958.4092
2023-05-19T02:13:39.564Z,958.4123
2023-05-19T02:14:41.045Z,958.4153
2023-05-19T02:15:42.539Z,958.4131
2023-05-19T02:16:43.821Z,958.4100
2023-05-19T02:17:45.366Z,958.4000
2023-05-19T02:18:46.714Z,958.3900
2023-05-19T02:19:48.171Z,958.3715
2023-05-19T02:20:49.548Z,958.3692
2023-05-19T02:21:50.990Z,958.3661
2023-05-19T02:22:52.375Z,958.3677
2023-05-19T02:23:53.869Z,958.3723
2023-05-19T02:24:55.288Z,958.3669
2023-05-19T02:25:56.800Z,958.3661
2023-05-19T02:26:58.083Z,958.3692
2023-05-19T02:27:59.679Z,958.3630
2023-05-19T02:29:01.097Z,958.3546
2023-05-19T02:30:02.530Z,958.3577
2023-05-19T02:31:03.921Z,958.3608
2023-05-19T02:32:05.494Z,958.3569
2023-05-19T02:33:06.856Z,958.3508
2023-05-19T02:34:08.207Z,958.3285
2023-05-19T02:35:09.649Z,958.3146
2023-05-19T02:36:11.009Z,958.3054
2023-05-19T02:37:12.456Z,958.2938
2023-05-19T02:38:13.911Z,958.2908
2023-05-19T02:39:15.260Z,958.2892
2023-05-19T02:40:16.640Z,958.2808
2023-05-19T02:41:18.107Z,958.2631
2023-05-19T02:42:19.486Z,958.2570
2023-05-19T02:43:21.033Z,958.2485
2023-05-19T02:44:22.468Z,958.2300
2023-05-19T02:45:23.805Z,958.2200
2023-05-19T02:46:25.309Z,958.2146
2023-05-19T02:47:26.712Z,958.2161
2023-05-19T02:48:28.281Z,958.2146
2023-05-19T02:49:29.559Z,958.2169
2023-05-19T02:50:31.215Z,958.2008
2023-05-19T02:51:32.456Z,958.2000
2023-05-19T02:52:33.910Z,958.1792
2023-05-19T02:53:35.286Z,958.1754
2023-05-19T02:54:36.685Z,958.1669
2023-05-19T02:55:38.112Z,958.1584
2023-05-19T02:56:39.578Z,958.1569
2023-05-19T02:57:41.017Z,958.1592
2023-05-19T02:58:42.480Z,958.1700
2023-05-19T02:59:43.868Z,958.1877
2023-05-19T03:00:45.313Z,958.1938
2023-05-19T03:01:46.722Z,958.1946
2023-05-19T03:02:48.216Z,958.1946
2023-05-19T03:03:49.676Z,958.1915
2023-05-19T03:04:51.010Z,958.1815
2023-05-19T03:05:52.471Z,958.1669
2023-05-19T03:06:53.826Z,958.1539
2023-05-19T03:07:55.322Z,958.1500
2023-05-19T03:08:57.266Z,958.1485
2023-05-19T03:09:58.141Z,958.1339
2023-05-19T03:10:59.553Z,958.1138
2023-05-19T03:12:00.993Z,958.0923
2023-05-19T03:13:02.404Z,958.0992
2023-05-19T03:14:03.874Z,958.0984
2023-05-19T03:15:05.252Z,958.0984
2023-05-19T03:16:06.782Z,958.0808
2023-05-19T03:17:08.328Z,958.0831
2023-05-19T03:18:09.629Z,958.0700
2023-05-19T03:19:11.023Z,958.0646
2023-05-19T03:20:12.534Z,958.0708
2023-05-19T03:21:13.792Z,958.0662
2023-05-19T03:22:15.236Z,958.0884
2023-05-19T03:23:16.629Z,958.1085
2023-05-19T03:24:18.250Z,958.1146
2023-05-19T03:25:19.443Z,958.1292
2023-05-19T03:26:20.953Z,958.1385
2023-05-19T03:27:22.379Z,958.1370
2023-05-19T03:28:23.794Z,958.1246
2023-05-19T03:29:25.262Z,958.1392
2023-05-19T03:30:26.695Z,958.1423
2023-05-19T03:31:28.066Z,958.1385
2023-05-19T03:32:29.590Z,958.1331
2023-05-19T03:33:31.084Z,958.1408
2023-05-19T03:34:32.377Z,958.1446
2023-05-19T03:35:33.764Z,958.1600
2023-05-19T03:36:35.192Z,958.1792
2023-05-19T03:37:36.612Z,958.1838
2023-05-19T03:38:37.969Z,958.1892
2023-05-19T03:39:40.385Z,958.1854
2023-05-19T03:40:40.951Z,958.1777
2023-05-19T03:41:42.268Z,958.1439
2023-05-19T03:42:43.751Z,958.1339
2023-05-19T03:43:45.140Z,958.1362
2023-05-19T03:44:46.610Z,958.1423
2023-05-19T03:45:48.053Z,958.1462
2023-05-19T03:46:49.488Z,958.1584
2023-05-19T03:47:50.902Z,958.1723
2023-05-19T03:48:52.381Z,958.1962
2023-05-19T03:49:53.736Z,958.2031
2023-05-19T03:50:55.270Z,958.2092
2023-05-19T03:51:56.537Z,958.2261
2023-05-19T03:52:58.100Z,958.2354
2023-05-19T03:53:59.403Z,958.2400
2023-05-19T03:55:00.901Z,958.2377
2023-05-19T03:56:02.283Z,958.2446
2023-05-19T03:57:03.722Z,958.2338
2023-05-19T03:58:05.037Z,958.2216
2023-05-19T03:59:06.542Z,958.2408
2023-05-19T04:00:08.007Z,958.2438
2023-05-19T04:01:09.433Z,958.2430
2023-05-19T04:02:10.929Z,958.2346
2023-05-19T04:03:12.270Z,958.2300
2023-05-19T04:04:13.726Z,958.2253
2023-05-19T04:05:15.141Z,958.2331
2023-05-19T04:06:16.404Z,958.2285
2023-05-19T04:07:17.930Z,958.2277
2023-05-19T04:08:19.334Z,958.2246
2023-05-19T04:09:20.718Z,958.2277
2023-05-19T04:10:22.305Z,958.2323
2023-05-19T04:11:23.572Z,958.2253
2023-05-19T04:12:25.079Z,958.2261
2023-05-19T04:13:26.395Z,958.2231
2023-05-19T04:14:27.896Z,958.2285
2023-05-19T04:15:29.366Z,958.2338
2023-05-19T04:16:30.929Z,958.2385
2023-05-19T04:17:32.223Z,958.2438
2023-05-19T04:18:33.593Z,958.2485
2023-05-19T04:19:34.981Z,958.2454
2023-05-19T04:20:36.455Z,958.2477
2023-05-19T04:21:37.820Z,958.2677
2023-05-19T04:22:39.270Z,958.2670
2023-05-19T04:23:40.777Z,958.2731
2023-05-19T04:24:42.166Z,958.2670
2023-05-19T04:25:43.534Z,958.2762
2023-05-19T04:26:45.014Z,958.2846
2023-05-19T04:27:46.453Z,958.2953
2023-05-19T04:28:47.860Z,958.2977
2023-05-19T04:29:49.208Z,958.3138
2023-05-19T04:30:50.742Z,958.3208
2023-05-19T04:31:52.062Z,958.3369
2023-05-19T04:32:53.572Z,958.3461
2023-05-19T04:33:55.010Z,958.3531
2023-05-19T04:34:56.365Z,958.3638
2023-05-19T04:35:57.836Z,958.3715
2023-05-19T04:36:59.284Z,958.3808
2023-05-19T04:38:00.577Z,958.3870
2023-05-19T04:39:02.115Z,958.4016
2023-05-19T04:40:03.568Z,958.4054
2023-05-19T04:41:04.990Z,958.4230
2023-05-19T04:42:06.299Z,958.4315
2023-05-19T04:43:07.887Z,958.4400
2023-05-19T04:44:09.337Z,958.4400
2023-05-19T04:45:10.516Z,958.4438
2023-05-19T04:46:13.414Z,958.4408
2023-05-19T04:47:13.593Z,958.4492
2023-05-19T04:48:14.984Z,958.4539
2023-05-19T04:49:16.293Z,958.4500
2023-05-19T04:50:17.750Z,958.4492
2023-05-19T04:51:19.177Z,958.4515
2023-05-19T04:52:20.624Z,958.4600
2023-05-19T04:53:22.018Z,958.4562
2023-05-19T04:54:23.348Z,958.4547
2023-05-19T04:55:24.800Z,958.4531
2023-05-19T04:56:26.331Z,958.4669
2023-05-19T04:57:27.708Z,958.4669
2023-05-19T04:58:29.118Z,958.4761
2023-05-19T04:59:30.558Z,958.4838
2023-05-19T05:00:32.111Z,958.4838
2023-05-19T05:01:33.362Z,958.4992
2023-05-19T05:02:34.930Z,958.5062
2023-05-19T05:03:36.211Z,958.5015
2023-05-19T05:04:37.717Z,958.5162
2023-05-19T05:05:39.025Z,958.5100
2023-05-19T05:06:40.546Z,958.5239
2023-05-19T05:07:41.937Z,958.5300
2023-05-19T05:08:43.313Z,958.5339
2023-05-19T05:09:44.796Z,958.5292
2023-05-19T05:10:46.175Z,958.5361
2023-05-19T05:11:47.590Z,958.5223
2023-05-19T05:12:49.005Z,958.5208
2023-05-19T05:13:50.404Z,958.5115
2023-05-19T05:14:51.796Z,958.5100
2023-05-19T05:15:53.166Z,958.5054
2023-05-19T05:16:54.761Z,958.5008
2023-05-19T05:17:56.207Z,958.5070
2023-05-19T05:18:57.640Z,958.5046
2023-05-19T05:19:59.016Z,958.4992
2023-05-19T05:21:00.347Z,958.4908
2023-05-19T05:22:01.812Z,958.4954
2023-05-19T05:23:03.225Z,958.4877
2023-05-19T05:24:04.657Z,958.4869
2023-05-19T05:25:06.010Z,958.4815
2023-05-19T05:26:07.537Z,958.4830
2023-05-19T05:27:08.898Z,958.4808
2023-05-19T05:28:10.380Z,958.4877
2023-05-19T05:29:11.747Z,958.4938
2023-05-19T05:30:13.242Z,958.4962
2023-05-19T05:31:14.565Z,958.4908
2023-05-19T05:32:16.104Z,958.5015
2023-05-19T05:33:17.626Z,958.5100
2023-05-19T05:34:18.895Z,958.5185
2023-05-19T05:35:20.397Z,958.5185
2023-05-19T05:36:21.740Z,958.5031
2023-05-19T05:37:23.174Z,958.4915
2023-05-19T05:38:24.615Z,958.4854
2023-05-19T05:39:25.995Z,958.4792
2023-05-19T05:40:27.428Z,958.4830
2023-05-19T05:41:28.801Z,958.4861
2023-05-19T05:42:30.388Z,958.4854
2023-05-19T05:43:31.737Z,958.5085
2023-05-19T05:44:33.128Z,958.5123
2023-05-19T05:45:34.711Z,958.5100
2023-05-19T05:46:35.865Z,958.5070
2023-05-19T05:47:37.389Z,958.5070
2023-05-19T05:48:38.890Z,958.5162
2023-05-19T05:49:40.154Z,958.5247
2023-05-19T05:50:41.613Z,958.5200
2023-05-19T05:51:48.456Z,958.5346
2023-05-19T05:52:44.530Z,958.5125
2023-05-19T05:53:45.919Z,958.5223
2023-05-19T05:54:47.395Z,958.5062
2023-05-19T05:55:48.771Z,958.5031
2023-05-19T05:56:50.226Z,958.4962
2023-05-19T05:57:51.593Z,958.4962
2023-05-19T05:58:53.036Z,958.4923
2023-05-19T05:59:54.445Z,958.4969
2023-05-19T06:00:55.832Z,958.4969
2023-05-19T06:01:57.248Z,958.5000
2023-05-19T06:02:58.882Z,958.4877
2023-05-19T06:04:00.141Z,958.4777
2023-05-19T06:05:01.613Z,958.4830
2023-05-19T06:06:03.010Z,958.4716
2023-05-19T06:07:04.337Z,958.4792
2023-05-19T06:08:05.874Z,958.5092
2023-05-19T06:09:07.256Z,958.5593
2023-05-19T06:10:08.581Z,958.5916
2023-05-19T06:11:10.058Z,958.5931
2023-05-19T06:12:11.470Z,958.5638
2023-05-19T06:13:13.019Z,958.5323
2023-05-19T06:14:14.335Z,958.5170
2023-05-19T06:15:15.776Z,958.5215
2023-05-19T06:16:17.208Z,958.5331
2023-05-19T06:17:18.602Z,958.5453
2023-05-19T06:18:20.054Z,958.5638
2023-05-19T06:19:21.460Z,958.6008
2023-05-19T06:20:22.887Z,958.6238
2023-05-19T06:21:24.248Z,958.6069
2023-05-19T06:22:25.709Z,958.5923
2023-05-19T06:23:27.168Z,958.6023
2023-05-19T06:24:28.635Z,958.6161
2023-05-19T06:25:29.968Z,958.5885
2023-05-19T06:26:31.283Z,958.6215
2023-05-19T06:27:34.644Z,958.6215
2023-05-19T06:28:34.245Z,958.6385
2023-05-19T06:29:35.793Z,958.6738
2023-05-19T06:30:37.160Z,958.6700
2023-05-19T06:31:38.488Z,958.6415
2023-05-19T06:32:40.044Z,958.6108
2023-05-19T06:33:41.521Z,958.6208
2023-05-19T06:34:42.943Z,958.6115
2023-05-19T06:35:44.261Z,958.5585
2023-05-19T06:36:45.767Z,958.5300
2023-05-19T06:37:47.118Z,958.5800
2023-05-19T06:38:49.398Z,958.6385
2023-05-19T06:39:49.968Z,958.6377
2023-05-19T06:40:51.409Z,958.6177
2023-05-19T06:41:52.786Z,958.5700
2023-05-19T06:42:54.115Z,958.5100
2023-05-19T06:43:55.682Z,958.4838
2023-05-19T06:44:57.097Z,958.5531
2023-05-19T06:45:58.355Z,958.6215
2023-05-19T06:46:59.892Z,958.6177
2023-05-19T06:48:01.349Z,958.6392
2023-05-19T06:49:02.756Z,958.6200
2023-05-19T06:50:04.185Z,958.5685
2023-05-19T06:51:05.834Z,958.5530
2023-05-19T06:52:06.974Z,958.5739
2023-05-19T06:53:08.419Z,958.5739
2023-05-19T06:54:09.880Z,958.6069
2023-05-19T06:55:11.906Z,958.6554
2023-05-19T06:56:12.758Z,958.6208
2023-05-19T06:57:14.105Z,958.5346
2023-05-19T06:58:15.529Z,958.5223
2023-05-19T06:59:17.044Z,958.5400
2023-05-19T07:00:19.954Z,958.5600
2023-05-19T07:01:19.793Z,958.5908
2023-05-19T07:02:21.184Z,958.6292
2023-05-19T07:03:22.805Z,958.5954
2023-05-19T07:04:24.088Z,958.5554
2023-05-19T07:05:26.449Z,958.5638
2023-05-19T07:06:26.865Z,958.6015
2023-05-19T07:07:28.240Z,958.6407
2023-05-19T07:08:29.764Z,958.6715
2023-05-19T07:09:31.227Z,958.6516
2023-05-19T07:10:32.824Z,958.5900
2023-05-19T07:11:33.973Z,958.5400
2023-05-19T07:12:35.394Z,958.5631
2023-05-19T07:13:36.868Z,958.5977
2023-05-19T07:14:38.318Z,958.6616
2023-05-19T07:15:39.782Z,958.6800
2023-05-19T07:16:41.128Z,958.6262
2023-05-19T07:17:42.570Z,958.5654
2023-05-19T07:18:44.044Z,958.5692
2023-05-19T07:19:45.381Z,958.5961
2023-05-19T07:20:46.884Z,958.6439
2023-05-19T07:21:48.258Z,958.6823
2023-05-19T07:22:49.615Z,958.6339
2023-05-19T07:23:51.076Z,958.5746
2023-05-19T07:24:52.555Z,958.5630
2023-05-19T07:25:54.415Z,958.5869
2023-05-19T07:26:55.382Z,958.6085
2023-05-19T07:27:56.777Z,958.6130
2023-05-19T07:28:58.230Z,958.5646
2023-05-19T07:29:59.617Z,958.5170
2023-05-19T07:31:01.187Z,958.5277
2023-05-19T07:32:02.567Z,958.5538
2023-05-19T07:33:03.919Z,958.6008
2023-05-19T07:34:05.330Z,958.6346
2023-05-19T07:35:06.688Z,958.6046
2023-05-19T07:36:08.210Z,958.5331
2023-05-19T07:37:09.512Z,958.4923
2023-05-19T07:38:11.091Z,958.5231
2023-05-19T07:39:12.433Z,958.5577
2023-05-19T07:40:13.865Z,958.5777
2023-05-19T07:41:15.333Z,958.5400
2023-05-19T07:42:16.642Z,958.4662
2023-05-19T07:43:17.987Z,958.4746
2023-05-19T07:44:19.538Z,958.5131
2023-05-19T07:45:21.008Z,958.5416
2023-05-19T07:46:22.550Z,958.5708
